sensor_id;sensor_type;location;lat;lon;timestamp;pressure;altitude;pressure_sealevel;temperature;humidity
60817;BME280;51921;51.518;-3.188;2023-05-11T00:01:52;101127.46;;;7.92;100.00
60817;BME280;51921;51.518;-3.188;2023-05-11T00:04:17;101125.19;;;8.40;100.00
60817;BME280;51921;51.518;-3.188;2023-05-11T00:06:43;101125.99;;;8.57;100.00
60817;BME280;51921;51.518;-3.188;2023-05-11T00:09:09;101133.66;;;8.03;100.00
60817;BME280;51921;51.518;-3.188;2023-05-11T00:11:34;101126.15;;;8.41;100.00
60817;BME280;51921;51.518;-3.188;2023-05-11T00:13:59;101125.40;;;8.43;100.00
60817;BME280;51921;51.518;-3.188;2023-05-11T00:16:25;101121.65;;;8.79;100.00
60817;BME280;51921;51.518;-3.188;2023-05-11T00:18:50;101121.74;;;9.09;100.00
60817;BME280;51921;51.518;-3.188;2023-05-11T00:21:15;101126.05;;;9.07;100.00
60817;BME280;51921;51.518;-3.188;2023-05-11T00:23:41;101133.60;;;7.98;100.00
60817;BME280;51921;51.518;-3.188;2023-05-11T00:26:06;101130.68;;;9.48;100.00
60817;BME280;51921;51.518;-3.188;2023-05-11T00:28:32;101127.78;;;9.28;100.00
60817;BME280;51921;51.518;-3.188;2023-05-11T00:30:57;101121.65;;;8.45;100.00
60817;BME280;51921;51.518;-3.188;2023-05-11T00:33:23;101127.06;;;8.80;100.00
60817;BME280;51921;51.518;-3.188;2023-05-11T00:35:48;101123.39;;;9.33;100.00
60817;BME280;51921;51.518;-3.188;2023-05-11T00:38:14;101124.29;;;8.36;100.00
60817;BME280;51921;51.518;-3.188;2023-05-11T00:40:39;101126.17;;;8.44;100.00
60817;BME280;51921;51.518;-3.188;2023-05-11T00:43:05;101124.30;;;8.61;100.00
60817;BME280;51921;51.518;-3.188;2023-05-11T00:45:31;101121.92;;;9.15;100.00
60817;BME280;51921;51.518;-3.188;2023-05-11T00:47:56;101123.29;;;9.07;100.00
60817;BME280;51921;51.518;-3.188;2023-05-11T00:50:21;101127.55;;;8.46;100.00
60817;BME280;51921;51.518;-3.188;2023-05-11T00:52:47;101123.37;;;8.86;100.00
60817;BME280;51921;51.518;-3.188;2023-05-11T00:55:13;101119.63;;;8.68;100.00
60817;BME280;51921;51.518;-3.188;2023-05-11T00:57:38;101119.06;;;8.44;100.00
60817;BME280;51921;51.518;-3.188;2023-05-11T01:00:05;101117.08;;;8.69;100.00
60817;BME280;51921;51.518;-3.188;2023-05-11T01:02:29;101117.91;;;8.71;100.00
60817;BME280;51921;51.518;-3.188;2023-05-11T01:04:54;101121.72;;;9.68;100.00
60817;BME280;51921;51.518;-3.188;2023-05-11T01:07:30;101125.69;;;9.55;100.00
60817;BME280;51921;51.518;-3.188;2023-05-11T01:09:54;101122.87;;;9.12;100.00
60817;BME280;51921;51.518;-3.188;2023-05-11T01:12:16;101125.42;;;9.96;100.00
60817;BME280;51921;51.518;-3.188;2023-05-11T01:14:41;101121.82;;;9.04;100.00
60817;BME280;51921;51.518;-3.188;2023-05-11T01:17:06;101119.67;;;10.92;100.00
60817;BME280;51921;51.518;-3.188;2023-05-11T01:19:43;101119.26;;;10.24;100.00
60817;BME280;51921;51.518;-3.188;2023-05-11T01:21:53;101120.40;;;11.04;100.00
60817;BME280;51921;51.518;-3.188;2023-05-11T01:24:28;101121.93;;;10.52;100.00
60817;BME280;51921;51.518;-3.188;2023-05-11T01:26:53;101122.44;;;9.26;100.00
60817;BME280;51921;51.518;-3.188;2023-05-11T01:29:25;101120.99;;;10.05;100.00
60817;BME280;51921;51.518;-3.188;2023-05-11T01:31:39;101125.02;;;9.41;100.00
60817;BME280;51921;51.518;-3.188;2023-05-11T01:34:03;101124.76;;;10.24;100.00
60817;BME280;51921;51.518;-3.188;2023-05-11T01:36:31;101126.30;;;10.79;100.00
60817;BME280;51921;51.518;-3.188;2023-05-11T01:38:53;101126.36;;;10.61;100.00
60817;BME280;51921;51.518;-3.188;2023-05-11T01:41:18;101128.90;;;10.42;100.00
60817;BME280;51921;51.518;-3.188;2023-05-11T01:43:46;101130.68;;;11.10;100.00
60817;BME280;51921;51.518;-3.188;2023-05-11T01:46:09;101131.38;;;10.68;100.00
60817;BME280;51921;51.518;-3.188;2023-05-11T01:48:37;101131.07;;;9.68;100.00
60817;BME280;51921;51.518;-3.188;2023-05-11T01:51:01;101134.18;;;9.99;100.00
60817;BME280;51921;51.518;-3.188;2023-05-11T01:53:25;101135.64;;;11.76;100.00
60817;BME280;51921;51.518;-3.188;2023-05-11T01:55:51;101131.14;;;10.73;100.00
60817;BME280;51921;51.518;-3.188;2023-05-11T01:58:16;101130.40;;;11.14;100.00
60817;BME280;51921;51.518;-3.188;2023-05-11T02:00:42;101129.43;;;11.50;100.00
60817;BME280;51921;51.518;-3.188;2023-05-11T02:03:08;101133.16;;;11.58;100.00
60817;BME280;51921;51.518;-3.188;2023-05-11T02:05:33;101132.39;;;11.36;100.00
60817;BME280;51921;51.518;-3.188;2023-05-11T02:07:57;101132.97;;;11.10;100.00
60817;BME280;51921;51.518;-3.188;2023-05-11T02:10:24;101134.66;;;11.76;100.00
60817;BME280;51921;51.518;-3.188;2023-05-11T02:12:48;101137.23;;;11.07;100.00
60817;BME280;51921;51.518;-3.188;2023-05-11T02:15:14;101133.71;;;12.71;98.90
60817;BME280;51921;51.518;-3.188;2023-05-11T02:17:40;101137.25;;;12.62;97.84
60817;BME280;51921;51.518;-3.188;2023-05-11T02:20:05;101141.02;;;11.16;100.00
60817;BME280;51921;51.518;-3.188;2023-05-11T02:22:30;101142.33;;;11.66;100.00
60817;BME280;51921;51.518;-3.188;2023-05-11T02:24:54;101138.50;;;11.09;100.00
60817;BME280;51921;51.518;-3.188;2023-05-11T02:27:20;101138.59;;;11.75;100.00
60817;BME280;51921;51.518;-3.188;2023-05-11T02:29:45;101135.23;;;12.58;97.41
60817;BME280;51921;51.518;-3.188;2023-05-11T02:32:14;101137.21;;;13.01;95.60
60817;BME280;51921;51.518;-3.188;2023-05-11T02:34:40;101137.08;;;12.86;93.99
60817;BME280;51921;51.518;-3.188;2023-05-11T02:37:08;101136.57;;;13.26;93.52
60817;BME280;51921;51.518;-3.188;2023-05-11T02:39:32;101135.48;;;13.10;92.09
60817;BME280;51921;51.518;-3.188;2023-05-11T02:41:55;101137.86;;;11.18;98.74
60817;BME280;51921;51.518;-3.188;2023-05-11T02:44:19;101143.75;;;11.34;100.00
60817;BME280;51921;51.518;-3.188;2023-05-11T02:46:46;101137.51;;;12.21;96.90
60817;BME280;51921;51.518;-3.188;2023-05-11T02:49:09;101133.19;;;13.41;92.99
60817;BME280;51921;51.518;-3.188;2023-05-11T02:51:36;101132.57;;;13.13;92.70
60817;BME280;51921;51.518;-3.188;2023-05-11T02:54:00;101134.11;;;13.73;90.61
60817;BME280;51921;51.518;-3.188;2023-05-11T02:56:25;101135.05;;;13.52;89.44
60817;BME280;51921;51.518;-3.188;2023-05-11T02:58:50;101138.43;;;13.71;87.79
60817;BME280;51921;51.518;-3.188;2023-05-11T03:01:16;101141.94;;;14.21;84.61
60817;BME280;51921;51.518;-3.188;2023-05-11T03:03:42;101140.98;;;13.99;85.85
60817;BME280;51921;51.518;-3.188;2023-05-11T03:06:06;101141.52;;;13.27;89.90
60817;BME280;51921;51.518;-3.188;2023-05-11T03:08:32;101141.62;;;10.80;100.00
60817;BME280;51921;51.518;-3.188;2023-05-11T03:10:58;101137.93;;;13.97;87.74
60817;BME280;51921;51.518;-3.188;2023-05-11T03:13:23;101140.94;;;13.04;91.50
60817;BME280;51921;51.518;-3.188;2023-05-11T03:15:48;101140.26;;;13.69;88.62
60817;BME280;51921;51.518;-3.188;2023-05-11T03:18:14;101142.91;;;13.61;88.47
60817;BME280;51921;51.518;-3.188;2023-05-11T03:20:41;101144.74;;;12.32;92.17
60817;BME280;51921;51.518;-3.188;2023-05-11T03:23:05;101146.40;;;12.67;91.55
60817;BME280;51921;51.518;-3.188;2023-05-11T03:25:30;101150.12;;;12.32;93.60
60817;BME280;51921;51.518;-3.188;2023-05-11T03:27:56;101150.81;;;13.06;91.84
60817;BME280;51921;51.518;-3.188;2023-05-11T03:30:21;101152.11;;;13.28;88.90
60817;BME280;51921;51.518;-3.188;2023-05-11T03:32:46;101154.40;;;9.27;100.00
60817;BME280;51921;51.518;-3.188;2023-05-11T03:35:11;101149.86;;;10.00;100.00
60817;BME280;51921;51.518;-3.188;2023-05-11T03:37:38;101147.25;;;10.37;100.00
60817;BME280;51921;51.518;-3.188;2023-05-11T03:40:03;101149.29;;;10.75;100.00
60817;BME280;51921;51.518;-3.188;2023-05-11T03:42:29;101154.50;;;12.04;97.66
60817;BME280;51921;51.518;-3.188;2023-05-11T03:44:54;101151.22;;;13.69;87.35
60817;BME280;51921;51.518;-3.188;2023-05-11T03:47:19;101149.56;;;13.01;88.85
60817;BME280;51921;51.518;-3.188;2023-05-11T03:49:45;101150.90;;;13.36;87.46
60817;BME280;51921;51.518;-3.188;2023-05-11T03:52:10;101154.89;;;13.17;89.76
60817;BME280;51921;51.518;-3.188;2023-05-11T03:54:36;101155.64;;;12.30;95.27
60817;BME280;51921;51.518;-3.188;2023-05-11T03:57:01;101153.32;;;10.62;100.00
60817;BME280;51921;51.518;-3.188;2023-05-11T03:59:27;101151.86;;;10.05;100.00
60817;BME280;51921;51.518;-3.188;2023-05-11T04:01:52;101150.49;;;9.23;100.00
60817;BME280;51921;51.518;-3.188;2023-05-11T04:04:18;101148.69;;;9.66;100.00
60817;BME280;51921;51.518;-3.188;2023-05-11T04:06:43;101149.04;;;11.32;97.95
60817;BME280;51921;51.518;-3.188;2023-05-11T04:09:08;101151.84;;;12.18;94.06
60817;BME280;51921;51.518;-3.188;2023-05-11T04:11:35;101150.91;;;12.23;92.87
60817;BME280;51921;51.518;-3.188;2023-05-11T04:13:59;101148.26;;;11.74;93.69
60817;BME280;51921;51.518;-3.188;2023-05-11T04:16:24;101149.34;;;10.75;98.70
60817;BME280;51921;51.518;-3.188;2023-05-11T04:18:50;101148.59;;;11.63;95.09
60817;BME280;51921;51.518;-3.188;2023-05-11T04:21:15;101156.35;;;11.99;94.23
60817;BME280;51921;51.518;-3.188;2023-05-11T04:23:41;101156.38;;;12.00;91.92
60817;BME280;51921;51.518;-3.188;2023-05-11T04:26:06;101158.83;;;12.20;91.94
60817;BME280;51921;51.518;-3.188;2023-05-11T04:28:31;101162.43;;;11.55;93.83
60817;BME280;51921;51.518;-3.188;2023-05-11T04:30:57;101162.17;;;12.32;90.90
60817;BME280;51921;51.518;-3.188;2023-05-11T04:33:22;101161.96;;;12.19;91.41
60817;BME280;51921;51.518;-3.188;2023-05-11T04:35:49;101162.90;;;11.81;89.91
60817;BME280;51921;51.518;-3.188;2023-05-11T04:38:13;101159.95;;;12.43;88.00
60817;BME280;51921;51.518;-3.188;2023-05-11T04:40:38;101161.55;;;12.44;88.27
60817;BME280;51921;51.518;-3.188;2023-05-11T04:43:04;101162.50;;;12.17;89.13
60817;BME280;51921;51.518;-3.188;2023-05-11T04:45:29;101162.74;;;12.78;87.08
60817;BME280;51921;51.518;-3.188;2023-05-11T04:47:54;101166.60;;;12.60;86.12
60817;BME280;51921;51.518;-3.188;2023-05-11T04:50:20;101171.72;;;12.39;86.52
60817;BME280;51921;51.518;-3.188;2023-05-11T04:52:45;101173.64;;;11.87;86.94
60817;BME280;51921;51.518;-3.188;2023-05-11T04:55:11;101173.27;;;13.20;84.56
60817;BME280;51921;51.518;-3.188;2023-05-11T04:57:36;101176.01;;;13.29;82.99
60817;BME280;51921;51.518;-3.188;2023-05-11T05:00:01;101176.75;;;13.60;81.59
60817;BME280;51921;51.518;-3.188;2023-05-11T05:02:26;101179.35;;;13.22;81.60
60817;BME280;51921;51.518;-3.188;2023-05-11T05:04:52;101182.54;;;13.28;81.06
60817;BME280;51921;51.518;-3.188;2023-05-11T05:07:17;101183.84;;;10.32;90.78
60817;BME280;51921;51.518;-3.188;2023-05-11T05:09:42;101188.20;;;9.55;98.85
60817;BME280;51921;51.518;-3.188;2023-05-11T05:12:08;101187.47;;;11.03;93.31
60817;BME280;51921;51.518;-3.188;2023-05-11T05:14:33;101192.41;;;10.78;94.55
60817;BME280;51921;51.518;-3.188;2023-05-11T05:16:58;101192.54;;;12.24;89.08
60817;BME280;51921;51.518;-3.188;2023-05-11T05:19:24;101193.43;;;13.48;84.49
60817;BME280;51921;51.518;-3.188;2023-05-11T05:21:49;101195.23;;;14.39;77.76
60817;BME280;51921;51.518;-3.188;2023-05-11T05:24:15;101197.52;;;13.85;80.78
60817;BME280;51921;51.518;-3.188;2023-05-11T05:26:40;101198.23;;;13.94;78.65
60817;BME280;51921;51.518;-3.188;2023-05-11T05:29:05;101204.13;;;13.75;78.18
60817;BME280;51921;51.518;-3.188;2023-05-11T05:31:31;101203.71;;;13.53;81.80
60817;BME280;51921;51.518;-3.188;2023-05-11T05:33:56;101205.96;;;13.20;82.42
60817;BME280;51921;51.518;-3.188;2023-05-11T05:36:22;101204.52;;;10.87;90.10
60817;BME280;51921;51.518;-3.188;2023-05-11T05:38:47;101207.26;;;10.91;89.62
60817;BME280;51921;51.518;-3.188;2023-05-11T05:41:12;101206.19;;;10.87;94.25
60817;BME280;51921;51.518;-3.188;2023-05-11T05:43:38;101208.69;;;10.13;95.57
60817;BME280;51921;51.518;-3.188;2023-05-11T05:46:03;101214.27;;;11.75;90.99
60817;BME280;51921;51.518;-3.188;2023-05-11T05:48:28;101212.10;;;13.02;85.40
60817;BME280;51921;51.518;-3.188;2023-05-11T05:50:54;101215.25;;;13.65;81.38
60817;BME280;51921;51.518;-3.188;2023-05-11T05:53:19;101218.54;;;12.88;83.21
60817;BME280;51921;51.518;-3.188;2023-05-11T05:55:45;101217.34;;;13.02;81.18
60817;BME280;51921;51.518;-3.188;2023-05-11T05:58:10;101222.87;;;13.05;81.45
60817;BME280;51921;51.518;-3.188;2023-05-11T06:00:35;101225.89;;;12.54;84.07
60817;BME280;51921;51.518;-3.188;2023-05-11T06:03:01;101225.21;;;12.17;85.00
60817;BME280;51921;51.518;-3.188;2023-05-11T06:05:26;101225.99;;;12.33;86.53
60817;BME280;51921;51.518;-3.188;2023-05-11T06:07:53;101228.53;;;13.04;83.17
60817;BME280;51921;51.518;-3.188;2023-05-11T06:10:17;101229.51;;;13.22;82.32
60817;BME280;51921;51.518;-3.188;2023-05-11T06:12:43;101227.71;;;13.03;83.37
60817;BME280;51921;51.518;-3.188;2023-05-11T06:15:09;101227.84;;;13.03;83.35
60817;BME280;51921;51.518;-3.188;2023-05-11T06:17:33;101232.00;;;12.71;85.72
60817;BME280;51921;51.518;-3.188;2023-05-11T06:19:59;101234.61;;;13.20;83.61
60817;BME280;51921;51.518;-3.188;2023-05-11T06:22:24;101237.74;;;13.66;81.61
60817;BME280;51921;51.518;-3.188;2023-05-11T06:24:50;101244.18;;;11.32;89.27
60817;BME280;51921;51.518;-3.188;2023-05-11T06:27:15;101249.57;;;12.35;88.47
60817;BME280;51921;51.518;-3.188;2023-05-11T06:29:40;101248.88;;;12.16;91.57
60817;BME280;51921;51.518;-3.188;2023-05-11T06:32:06;101245.99;;;10.49;96.19
60817;BME280;51921;51.518;-3.188;2023-05-11T06:34:31;101248.12;;;11.50;93.34
60817;BME280;51921;51.518;-3.188;2023-05-11T06:36:58;101249.06;;;12.89;87.95
60817;BME280;51921;51.518;-3.188;2023-05-11T06:39:21;101251.19;;;12.39;87.30
60817;BME280;51921;51.518;-3.188;2023-05-11T06:41:50;101248.10;;;13.36;83.60
60817;BME280;51921;51.518;-3.188;2023-05-11T06:44:12;101248.86;;;11.88;90.26
60817;BME280;51921;51.518;-3.188;2023-05-11T06:46:38;101249.72;;;10.11;97.19
60817;BME280;51921;51.518;-3.188;2023-05-11T06:49:04;101253.48;;;12.95;87.36
60817;BME280;51921;51.518;-3.188;2023-05-11T06:51:29;101249.83;;;12.42;86.69
60817;BME280;51921;51.518;-3.188;2023-05-11T06:53:54;101253.10;;;12.04;89.39
60817;BME280;51921;51.518;-3.188;2023-05-11T06:56:20;101253.99;;;13.29;81.68
60817;BME280;51921;51.518;-3.188;2023-05-11T06:58:45;101250.71;;;11.47;86.82
60817;BME280;51921;51.518;-3.188;2023-05-11T07:01:11;101256.01;;;12.33;84.20
60817;BME280;51921;51.518;-3.188;2023-05-11T07:03:36;101255.48;;;10.62;92.42
60817;BME280;51921;51.518;-3.188;2023-05-11T07:06:01;101259.30;;;12.35;85.21
60817;BME280;51921;51.518;-3.188;2023-05-11T07:08:27;101259.24;;;10.26;92.17
60817;BME280;51921;51.518;-3.188;2023-05-11T07:10:52;101259.60;;;11.67;93.83
60817;BME280;51921;51.518;-3.188;2023-05-11T07:13:17;101260.26;;;13.44;83.69
60817;BME280;51921;51.518;-3.188;2023-05-11T07:15:42;101256.44;;;14.09;77.35
60817;BME280;51921;51.518;-3.188;2023-05-11T07:18:07;101258.30;;;13.62;78.10
60817;BME280;51921;51.518;-3.188;2023-05-11T07:20:33;101259.17;;;14.08;76.68
60817;BME280;51921;51.518;-3.188;2023-05-11T07:22:58;101264.13;;;13.25;79.37
60817;BME280;51921;51.518;-3.188;2023-05-11T07:25:24;101260.95;;;14.05;76.18
60817;BME280;51921;51.518;-3.188;2023-05-11T07:27:56;101261.35;;;14.46;72.44
60817;BME280;51921;51.518;-3.188;2023-05-11T07:30:15;101257.39;;;15.18;71.32
60817;BME280;51921;51.518;-3.188;2023-05-11T07:32:41;101257.80;;;15.09;74.16
60817;BME280;51921;51.518;-3.188;2023-05-11T07:35:06;101256.03;;;18.79;62.82
60817;BME280;51921;51.518;-3.188;2023-05-11T07:37:30;101256.16;;;18.22;55.89
60817;BME280;51921;51.518;-3.188;2023-05-11T07:39:56;101256.97;;;15.28;59.78
60817;BME280;51921;51.518;-3.188;2023-05-11T07:42:21;101256.01;;;16.03;65.18
60817;BME280;51921;51.518;-3.188;2023-05-11T07:44:47;101258.72;;;14.08;67.94
60817;BME280;51921;51.518;-3.188;2023-05-11T07:47:12;101261.26;;;11.50;81.20
60817;BME280;51921;51.518;-3.188;2023-05-11T07:49:37;101259.27;;;11.36;84.45
60817;BME280;51921;51.518;-3.188;2023-05-11T07:52:03;101259.63;;;12.95;79.75
60817;BME280;51921;51.518;-3.188;2023-05-11T07:54:28;101258.28;;;10.72;81.66
60817;BME280;51921;51.518;-3.188;2023-05-11T07:56:54;101254.46;;;14.53;67.80
60817;BME280;51921;51.518;-3.188;2023-05-11T07:59:19;101251.75;;;18.44;61.91
60817;BME280;51921;51.518;-3.188;2023-05-11T08:01:44;101250.24;;;20.18;49.20
60817;BME280;51921;51.518;-3.188;2023-05-11T08:04:10;101252.44;;;20.29;43.35
60817;BME280;51921;51.518;-3.188;2023-05-11T08:06:35;101256.12;;;22.42;43.49
60817;BME280;51921;51.518;-3.188;2023-05-11T08:09:00;101250.94;;;23.04;39.20
60817;BME280;51921;51.518;-3.188;2023-05-11T08:11:25;101250.36;;;24.72;36.62
60817;BME280;51921;51.518;-3.188;2023-05-11T08:13:51;101253.98;;;22.26;38.63
60817;BME280;51921;51.518;-3.188;2023-05-11T08:16:16;101249.42;;;19.63;40.70
60817;BME280;51921;51.518;-3.188;2023-05-11T08:18:41;101251.20;;;20.46;41.04
60817;BME280;51921;51.518;-3.188;2023-05-11T08:21:07;101252.62;;;18.08;43.02
60817;BME280;51921;51.518;-3.188;2023-05-11T08:23:32;101255.40;;;15.84;47.97
60817;BME280;51921;51.518;-3.188;2023-05-11T08:25:57;101254.39;;;17.59;50.45
60817;BME280;51921;51.518;-3.188;2023-05-11T08:28:22;101258.99;;;17.56;50.13
60817;BME280;51921;51.518;-3.188;2023-05-11T08:30:53;101259.57;;;16.61;53.67
60817;BME280;51921;51.518;-3.188;2023-05-11T08:33:13;101253.48;;;19.62;46.80
60817;BME280;51921;51.518;-3.188;2023-05-11T08:35:39;101250.11;;;20.77;44.98
60817;BME280;51921;51.518;-3.188;2023-05-11T08:38:04;101256.51;;;21.78;41.54
60817;BME280;51921;51.518;-3.188;2023-05-11T08:40:30;101254.25;;;20.67;43.70
60817;BME280;51921;51.518;-3.188;2023-05-11T08:42:55;101255.18;;;20.86;42.87
60817;BME280;51921;51.518;-3.188;2023-05-11T08:45:20;101254.82;;;20.73;40.12
60817;BME280;51921;51.518;-3.188;2023-05-11T08:47:45;101256.64;;;19.64;43.89
60817;BME280;51921;51.518;-3.188;2023-05-11T08:50:10;101260.91;;;19.22;41.82
60817;BME280;51921;51.518;-3.188;2023-05-11T08:52:35;101262.95;;;18.62;43.25
60817;BME280;51921;51.518;-3.188;2023-05-11T08:55:01;101263.60;;;18.34;43.95
60817;BME280;51921;51.518;-3.188;2023-05-11T08:57:30;101264.71;;;17.29;47.51
60817;BME280;51921;51.518;-3.188;2023-05-11T08:59:52;101261.00;;;15.32;51.31
60817;BME280;51921;51.518;-3.188;2023-05-11T09:02:18;101267.20;;;17.30;51.10
60817;BME280;51921;51.518;-3.188;2023-05-11T09:04:42;101262.69;;;16.59;51.04
60817;BME280;51921;51.518;-3.188;2023-05-11T09:07:08;101267.84;;;16.98;50.80
60817;BME280;51921;51.518;-3.188;2023-05-11T09:09:33;101265.55;;;17.62;50.11
60817;BME280;51921;51.518;-3.188;2023-05-11T09:11:58;101266.11;;;15.11;52.52
60817;BME280;51921;51.518;-3.188;2023-05-11T09:14:23;101262.24;;;15.61;55.55
60817;BME280;51921;51.518;-3.188;2023-05-11T09:16:49;101265.78;;;15.95;54.21
60817;BME280;51921;51.518;-3.188;2023-05-11T09:19:14;101261.51;;;15.05;56.22
60817;BME280;51921;51.518;-3.188;2023-05-11T09:21:39;101258.77;;;15.71;54.84
60817;BME280;51921;51.518;-3.188;2023-05-11T09:24:05;101265.11;;;15.53;54.51
60817;BME280;51921;51.518;-3.188;2023-05-11T09:26:32;101268.03;;;14.11;60.12
60817;BME280;51921;51.518;-3.188;2023-05-11T09:28:57;101268.01;;;14.44;60.48
60817;BME280;51921;51.518;-3.188;2023-05-11T09:31:34;101269.17;;;13.62;62.62
60817;BME280;51921;51.518;-3.188;2023-05-11T09:33:46;101266.06;;;13.85;64.88
60817;BME280;51921;51.518;-3.188;2023-05-11T09:36:21;101265.77;;;14.41;61.50
60817;BME280;51921;51.518;-3.188;2023-05-11T09:38:37;101262.69;;;13.76;66.92
60817;BME280;51921;51.518;-3.188;2023-05-11T09:41:03;101264.29;;;13.81;66.87
60817;BME280;51921;51.518;-3.188;2023-05-11T09:43:29;101265.99;;;12.85;70.38
60817;BME280;51921;51.518;-3.188;2023-05-11T09:45:55;101264.58;;;13.57;70.38
60817;BME280;51921;51.518;-3.188;2023-05-11T09:48:27;101263.41;;;13.74;69.41
60817;BME280;51921;51.518;-3.188;2023-05-11T09:50:45;101259.00;;;15.25;64.65
60817;BME280;51921;51.518;-3.188;2023-05-11T09:53:10;101258.34;;;15.73;61.30
60817;BME280;51921;51.518;-3.188;2023-05-11T09:55:35;101259.81;;;14.69;64.10
60817;BME280;51921;51.518;-3.188;2023-05-11T09:58:00;101258.55;;;14.74;58.79
60817;BME280;51921;51.518;-3.188;2023-05-11T10:00:26;101255.97;;;15.89;56.88
60817;BME280;51921;51.518;-3.188;2023-05-11T10:03:01;101255.55;;;15.75;57.87
60817;BME280;51921;51.518;-3.188;2023-05-11T10:05:16;101257.25;;;14.68;62.47
60817;BME280;51921;51.518;-3.188;2023-05-11T10:07:42;101257.38;;;15.56;58.48
60817;BME280;51921;51.518;-3.188;2023-05-11T10:10:08;101251.57;;;15.34;57.13
60817;BME280;51921;51.518;-3.188;2023-05-11T10:12:34;101254.35;;;14.86;57.72
60817;BME280;51921;51.518;-3.188;2023-05-11T10:15:00;101260.57;;;14.43;58.36
60817;BME280;51921;51.518;-3.188;2023-05-11T10:17:25;101260.50;;;14.12;56.90
60817;BME280;51921;51.518;-3.188;2023-05-11T10:19:55;101259.96;;;15.24;56.09
60817;BME280;51921;51.518;-3.188;2023-05-11T10:22:14;101257.68;;;15.65;52.62
60817;BME280;51921;51.518;-3.188;2023-05-11T10:24:39;101255.17;;;16.67;53.45
60817;BME280;51921;51.518;-3.188;2023-05-11T10:27:05;101251.76;;;14.76;54.39
60817;BME280;51921;51.518;-3.188;2023-05-11T10:29:31;101249.67;;;15.87;56.95
60817;BME280;51921;51.518;-3.188;2023-05-11T10:31:56;101250.53;;;15.78;56.81
60817;BME280;51921;51.518;-3.188;2023-05-11T10:34:21;101251.65;;;15.16;59.28
60817;BME280;51921;51.518;-3.188;2023-05-11T10:36:46;101247.38;;;16.36;56.14
60817;BME280;51921;51.518;-3.188;2023-05-11T10:39:11;101249.89;;;13.93;62.97
60817;BME280;51921;51.518;-3.188;2023-05-11T10:41:46;101248.13;;;15.06;62.50
60817;BME280;51921;51.518;-3.188;2023-05-11T10:46:38;101244.11;;;15.70;61.23
60817;BME280;51921;51.518;-3.188;2023-05-11T10:49:12;101249.21;;;15.52;60.75
60817;BME280;51921;51.518;-3.188;2023-05-11T10:51:27;101250.20;;;16.75;56.53
60817;BME280;51921;51.518;-3.188;2023-05-11T10:53:56;101252.01;;;16.15;58.63
60817;BME280;51921;51.518;-3.188;2023-05-11T10:56:21;101254.81;;;15.06;65.26
60817;BME280;51921;51.518;-3.188;2023-05-11T10:58:45;101250.40;;;16.37;60.44
60817;BME280;51921;51.518;-3.188;2023-05-11T11:01:18;101244.38;;;15.70;62.53
60817;BME280;51921;51.518;-3.188;2023-05-11T11:03:25;101246.63;;;14.20;65.34
60817;BME280;51921;51.518;-3.188;2023-05-11T11:05:50;101243.88;;;15.17;63.16
60817;BME280;51921;51.518;-3.188;2023-05-11T11:08:16;101245.92;;;14.49;67.12
60817;BME280;51921;51.518;-3.188;2023-05-11T11:10:43;101241.79;;;14.62;65.16
60817;BME280;51921;51.518;-3.188;2023-05-11T11:13:08;101242.71;;;14.68;66.74
60817;BME280;51921;51.518;-3.188;2023-05-11T11:22:48;101236.18;;;14.23;70.93
60817;BME280;51921;51.518;-3.188;2023-05-11T11:25:50;101236.71;;;14.34;67.96
60817;BME280;51921;51.518;-3.188;2023-05-11T11:27:54;101235.93;;;13.97;67.54
60817;BME280;51921;51.518;-3.188;2023-05-11T11:30:16;101239.46;;;15.69;64.54
60817;BME280;51921;51.518;-3.188;2023-05-11T11:32:30;101238.03;;;15.79;64.91
60817;BME280;51921;51.518;-3.188;2023-05-11T11:34:55;101229.64;;;15.46;63.75
60817;BME280;51921;51.518;-3.188;2023-05-11T11:37:20;101231.01;;;15.10;61.02
60817;BME280;51921;51.518;-3.188;2023-05-11T11:39:48;101232.40;;;14.38;68.76
60817;BME280;51921;51.518;-3.188;2023-05-11T11:42:13;101232.58;;;15.01;69.60
60817;BME280;51921;51.518;-3.188;2023-05-11T11:44:38;101227.41;;;15.49;66.80
60817;BME280;51921;51.518;-3.188;2023-05-11T11:47:10;101230.02;;;15.16;67.58
60817;BME280;51921;51.518;-3.188;2023-05-11T11:49:27;101225.07;;;14.79;65.57
60817;BME280;51921;51.518;-3.188;2023-05-11T11:51:53;101219.88;;;15.49;65.46
60817;BME280;51921;51.518;-3.188;2023-05-11T11:56:44;101214.73;;;15.29;67.90
60817;BME280;51921;51.518;-3.188;2023-05-11T11:59:10;101214.16;;;17.67;60.26
60817;BME280;51921;51.518;-3.188;2023-05-11T12:01:36;101211.55;;;15.82;59.15
60817;BME280;51921;51.518;-3.188;2023-05-11T12:06:31;101212.71;;;16.21;59.53
60817;BME280;51921;51.518;-3.188;2023-05-11T12:08:50;101210.94;;;15.40;65.27
60817;BME280;51921;51.518;-3.188;2023-05-11T12:11:16;101211.92;;;16.12;59.93
60817;BME280;51921;51.518;-3.188;2023-05-11T12:13:42;101210.66;;;17.80;54.80
60817;BME280;51921;51.518;-3.188;2023-05-11T12:16:07;101209.56;;;16.12;54.52
60817;BME280;51921;51.518;-3.188;2023-05-11T12:18:32;101211.31;;;17.07;45.94
60817;BME280;51921;51.518;-3.188;2023-05-11T12:20:57;101213.92;;;16.70;52.02
60817;BME280;51921;51.518;-3.188;2023-05-11T12:23:23;101214.87;;;16.15;56.23
60817;BME280;51921;51.518;-3.188;2023-05-11T12:25:59;101207.39;;;15.44;61.32
60817;BME280;51921;51.518;-3.188;2023-05-11T12:28:18;101209.83;;;15.07;63.23
60817;BME280;51921;51.518;-3.188;2023-05-11T12:30:39;101206.78;;;14.04;69.97
60817;BME280;51921;51.518;-3.188;2023-05-11T12:33:07;101213.02;;;14.32;82.89
60817;BME280;51921;51.518;-3.188;2023-05-11T12:35:31;101208.06;;;14.35;86.67
60817;BME280;51921;51.518;-3.188;2023-05-11T12:37:56;101211.83;;;14.63;87.65
60817;BME280;51921;51.518;-3.188;2023-05-11T12:40:21;101212.97;;;15.14;85.63
60817;BME280;51921;51.518;-3.188;2023-05-11T12:42:49;101212.96;;;14.73;87.54